CYTZ

Toronto / City Centre Airport

Toronto, , Canada
METAR CYTZ 211500Z AUTO 19008KT 9SM CLR 05/M03 A3047 RMK SLP322
Observed Flight Rules
Apr-21 @ 15:00 UTC (37 minutes ago) Visual Flight Rules
Wind Visibility Clouds
190° at 8 knots 9 miles
  • Clear skies
Temperatures Readings
Current 5°C / 41°F
Dewpoint -3°C / 27°F
Humidity 57%
Altimeter 30.47" Hg
Pressure 1032.2 hPa
Elevation 77
METAR CYTZ 211500Z AUTO 19008KT 9SM CLR 05/M03 A3047 RMK SLP322
Observed Flight Rules
Apr-21 @ 15:00 UTC
(37 minutes ago)
VFR
Wind Visibility
190° at 8 knots 9 miles
Clouds
  • Clear skies
Temperature Dewpoint
5°C / 41°F -3°C / 27°F
Humidity Altimeter Pressure
57% 30.47" Hg 1032.2 hPa